Time;durP1;ratioP1;P1;durP2;ratioP2;P2;SDS_P1;SDS_P2;PMS_P1;PMS_P2;Temp;Humidity;BMP_temperature;BMP_pressure;BME280_temperature;BME280_humidity;BME280_pressure;Samples;Min_cycle;Max_cycle;Signal;HPM_P1;HPM_P2
2022/03/25 00:02:16;;;;;;;28.60;17.02;;;7.30;99.90;;;;;;5017124;28;20478;-75
2022/03/25 00:04:41;;;;;;;29.20;16.15;;;7.30;99.90;;;;;;5033748;28;20026;-76
2022/03/25 00:07:07;;;;;;;27.85;15.57;;;7.30;99.90;;;;;;5001803;28;20033;-76
2022/03/25 00:09:33;;;;;;;28.52;17.00;;;7.30;99.90;;;;;;5035031;28;20386;-75
2022/03/25 00:11:59;;;;;;;32.58;17.23;;;7.20;99.90;;;;;;5017926;28;20495;-76
2022/03/25 00:14:25;;;;;;;29.48;16.98;;;7.20;99.90;;;;;;5019240;28;20881;-76
2022/03/25 00:16:51;;;;;;;27.63;16.70;;;7.10;99.90;;;;;;5034677;28;20367;-76
2022/03/25 00:19:17;;;;;;;29.05;16.17;;;7.10;99.90;;;;;;5029881;28;20085;-75
2022/03/25 00:21:43;;;;;;;32.05;16.73;;;7.10;99.90;;;;;;5013459;28;20037;-76
2022/03/25 00:24:09;;;;;;;34.05;19.10;;;7.10;99.90;;;;;;5011567;28;20033;-75
2022/03/25 00:26:34;;;;;;;36.85;20.63;;;7.00;99.90;;;;;;5012806;28;20029;-76
2022/03/25 00:29:01;;;;;;;39.65;22.13;;;6.90;99.90;;;;;;5013073;28;20540;-76
2022/03/25 00:31:26;;;;;;;37.28;21.40;;;6.90;99.90;;;;;;5029417;28;20083;-76
2022/03/25 00:33:52;;;;;;;39.38;22.13;;;6.80;99.90;;;;;;4996993;28;20481;-76
2022/03/25 00:36:19;;;;;;;41.58;22.83;;;6.70;99.90;;;;;;5005290;28;20028;-76
2022/03/25 00:38:45;;;;;;;38.30;22.40;;;6.60;99.90;;;;;;5018229;28;20047;-75
2022/03/25 00:41:12;;;;;;;35.35;19.88;;;6.50;99.90;;;;;;5000279;28;20511;-76
2022/03/25 00:43:38;;;;;;;40.17;23.20;;;6.50;99.90;;;;;;5016126;28;20029;-76
2022/03/25 00:46:05;;;;;;;35.63;20.55;;;6.40;99.90;;;;;;5031952;28;20087;-76
2022/03/25 00:48:32;;;;;;;38.90;20.90;;;6.30;99.90;;;;;;5021443;28;20604;-76
2022/03/25 00:50:58;;;;;;;38.45;21.27;;;6.30;99.90;;;;;;5017188;28;20021;-75
2022/03/25 00:53:23;;;;;;;37.03;21.55;;;6.30;99.90;;;;;;5007258;28;20027;-76
2022/03/25 00:55:49;;;;;;;34.15;19.17;;;6.10;99.90;;;;;;5017006;28;20029;-76
2022/03/25 00:58:15;;;;;;;32.95;18.98;;;6.10;99.90;;;;;;5015375;28;20159;-75
2022/03/25 01:00:44;;;;;;;32.15;18.17;;;6.10;99.90;;;;;;5032128;28;20186;-76
2022/03/25 01:03:09;;;;;;;29.48;17.02;;;6.00;99.90;;;;;;5016280;28;20032;-76
2022/03/25 01:05:35;;;;;;;34.00;18.00;;;6.00;99.90;;;;;;5015003;28;20040;-75
2022/03/25 01:08:01;;;;;;;34.60;18.92;;;6.00;99.90;;;;;;5014240;28;20064;-76
2022/03/25 01:10:26;;;;;;;33.95;20.05;;;6.10;99.90;;;;;;5022668;28;20494;-76
2022/03/25 01:12:53;;;;;;;30.70;16.70;;;6.00;99.90;;;;;;5017557;28;20029;-76
2022/03/25 01:15:19;;;;;;;31.02;16.02;;;6.00;99.90;;;;;;5015915;28;20527;-75
2022/03/25 01:17:44;;;;;;;36.30;20.77;;;6.00;99.90;;;;;;5003651;28;20114;-75
2022/03/25 01:20:11;;;;;;;45.50;25.70;;;6.00;99.90;;;;;;5021888;28;20021;-77
2022/03/25 01:22:37;;;;;;;40.00;22.38;;;6.00;99.90;;;;;;5005378;28;20044;-75
2022/03/25 01:25:03;;;;;;;42.55;25.08;;;6.00;99.90;;;;;;5032756;28;20024;-75
2022/03/25 01:27:28;;;;;;;44.38;25.65;;;5.90;99.90;;;;;;5034189;28;20030;-75
2022/03/25 01:29:54;;;;;;;46.85;26.40;;;5.90;99.90;;;;;;4999658;28;20079;-75
2022/03/25 01:32:20;;;;;;;38.47;22.13;;;5.90;99.90;;;;;;5014722;28;20029;-76
2022/03/25 01:34:46;;;;;;;49.90;28.95;;;5.90;99.90;;;;;;4994114;28;20064;-75
2022/03/25 01:37:13;;;;;;;38.85;23.15;;;5.90;99.90;;;;;;5028393;28;20564;-75
2022/03/25 01:39:39;;;;;;;38.35;21.35;;;5.80;99.90;;;;;;5018054;28;20147;-75
2022/03/25 01:42:05;;;;;;;41.03;21.73;;;5.70;99.90;;;;;;5018158;28;20037;-75
2022/03/25 01:44:31;;;;;;;34.50;19.98;;;5.70;99.90;;;;;;5010944;28;20423;-74
2022/03/25 01:46:59;;;;;;;28.58;16.65;;;5.60;99.90;;;;;;5010842;28;20029;-75
2022/03/25 01:49:25;;;;;;;32.08;17.38;;;5.60;99.90;;;;;;5007941;28;20037;-75
2022/03/25 01:51:54;;;;;;;36.17;21.75;;;5.60;99.90;;;;;;5012031;28;20045;-76
2022/03/25 01:54:24;;;;;;;38.15;21.50;;;5.60;99.90;;;;;;5029793;28;20063;-75
2022/03/25 01:57:05;;;;;;;33.50;18.85;;;5.50;99.90;;;;;;5016715;28;20037;-76
2022/03/25 01:59:32;;;;;;;31.05;18.67;;;5.40;99.90;;;;;;5011771;28;20322;-75
2022/03/25 02:01:58;;;;;;;28.00;16.90;;;5.30;99.90;;;;;;5010958;28;20393;-74
2022/03/25 02:04:25;;;;;;;28.85;17.27;;;5.30;99.90;;;;;;5011152;28;20119;-75
2022/03/25 02:06:51;;;;;;;33.33;18.80;;;5.20;99.90;;;;;;5010824;28;20032;-76
2022/03/25 02:09:17;;;;;;;32.70;17.58;;;5.20;99.90;;;;;;5029937;28;20037;-75
2022/03/25 02:11:43;;;;;;;35.90;19.35;;;5.20;99.90;;;;;;5011016;28;20029;-75
2022/03/25 02:14:10;;;;;;;29.95;18.42;;;5.10;99.90;;;;;;5011293;28;20447;-76
2022/03/25 02:16:41;;;;;;;31.95;18.17;;;5.10;99.90;;;;;;4995071;28;20397;-75
2022/03/25 02:19:08;;;;;;;31.42;18.40;;;5.10;99.90;;;;;;5030107;28;20179;-75
2022/03/25 02:21:38;;;;;;;30.48;17.23;;;5.10;99.90;;;;;;5011052;28;20025;-76
2022/03/25 02:24:09;;;;;;;31.23;18.77;;;5.10;99.90;;;;;;5028489;28;20029;-75
2022/03/25 02:26:36;;;;;;;30.20;17.63;;;5.10;99.90;;;;;;5013098;28;20612;-75
2022/03/25 02:29:05;;;;;;;31.08;16.88;;;5.10;99.90;;;;;;5021434;28;20078;-75
2022/03/25 02:31:31;;;;;;;23.85;14.60;;;5.10;99.90;;;;;;5014858;28;20040;-76
2022/03/25 02:34:05;;;;;;;39.78;23.33;;;5.10;99.90;;;;;;5015016;28;20025;-75
2022/03/25 02:36:39;;;;;;;45.22;25.55;;;5.10;99.90;;;;;;5014780;28;20033;-76
2022/03/25 02:39:06;;;;;;;43.33;24.77;;;5.10;99.90;;;;;;5021184;28;20030;-76
2022/03/25 02:41:32;;;;;;;43.90;25.20;;;5.10;99.90;;;;;;5020977;28;20510;-75
2022/03/25 02:43:59;;;;;;;39.13;22.27;;;5.10;99.90;;;;;;5015081;28;20063;-75
2022/03/25 02:46:25;;;;;;;36.88;21.50;;;5.00;99.90;;;;;;5020446;28;20025;-75
2022/03/25 02:48:52;;;;;;;39.78;23.05;;;4.90;99.90;;;;;;5021213;28;20692;-75
2022/03/25 02:51:17;;;;;;;43.90;25.08;;;5.00;99.90;;;;;;5013674;28;20079;-76
2022/03/25 02:53:43;;;;;;;50.65;28.58;;;5.00;99.90;;;;;;5015755;28;20049;-75
2022/03/25 02:56:09;;;;;;;49.95;29.50;;;4.90;99.90;;;;;;5014155;28;20530;-75
2022/03/25 02:58:34;;;;;;;48.88;26.05;;;4.90;99.90;;;;;;5000178;28;20036;-75
2022/03/25 03:01:00;;;;;;;44.78;25.40;;;4.80;99.90;;;;;;5032345;28;20021;-75
2022/03/25 03:03:26;;;;;;;45.10;23.83;;;4.80;99.90;;;;;;5012823;28;20481;-75
2022/03/25 03:05:51;;;;;;;32.17;18.83;;;4.80;99.90;;;;;;5016485;28;20026;-74
2022/03/25 03:08:17;;;;;;;45.47;26.50;;;4.80;99.90;;;;;;5001724;28;20033;-74
2022/03/25 03:10:43;;;;;;;41.55;23.52;;;4.80;99.90;;;;;;5032273;28;20033;-75
2022/03/25 03:13:09;;;;;;;43.85;23.58;;;4.70;99.90;;;;;;4998999;28;20473;-75
2022/03/25 03:15:36;;;;;;;40.10;23.13;;;4.60;99.90;;;;;;4997495;28;20131;-76
2022/03/25 03:18:02;;;;;;;42.63;24.00;;;4.60;99.90;;;;;;5013748;28;20140;-75
2022/03/25 03:20:28;;;;;;;39.13;22.95;;;4.60;99.90;;;;;;5003366;28;20032;-75
2022/03/25 03:22:55;;;;;;;32.65;18.02;;;4.50;99.90;;;;;;5020272;28;20076;-75
2022/03/25 03:25:21;;;;;;;36.10;20.23;;;4.50;99.90;;;;;;5030521;28;21765;-75
2022/03/25 03:27:46;;;;;;;39.72;21.55;;;4.50;99.90;;;;;;5014260;28;20478;-75
2022/03/25 03:30:12;;;;;;;38.03;21.25;;;4.40;99.90;;;;;;5020079;28;20433;-76
2022/03/25 03:32:38;;;;;;;38.42;20.60;;;4.40;99.90;;;;;;5013147;28;20509;-75
2022/03/25 03:35:04;;;;;;;36.40;19.60;;;4.40;99.90;;;;;;4997061;28;20030;-75
2022/03/25 03:37:30;;;;;;;37.72;22.95;;;4.30;99.90;;;;;;5013091;28;20050;-75
2022/03/25 03:39:56;;;;;;;36.97;20.98;;;4.30;99.90;;;;;;5013275;28;20025;-75
2022/03/25 03:42:21;;;;;;;36.17;20.05;;;4.30;99.90;;;;;;5013361;28;20832;-74
2022/03/25 03:44:47;;;;;;;36.83;21.42;;;4.30;99.90;;;;;;4999840;28;20465;-75
2022/03/25 03:47:14;;;;;;;45.15;26.05;;;4.20;99.90;;;;;;5012849;28;20374;-75
2022/03/25 03:49:40;;;;;;;44.20;23.55;;;4.30;99.90;;;;;;5013538;28;20465;-75
2022/03/25 03:52:09;;;;;;;43.10;24.38;;;4.20;99.90;;;;;;4996684;28;20037;-75
2022/03/25 03:54:36;;;;;;;39.47;22.67;;;4.10;99.90;;;;;;5015953;28;20053;-75
2022/03/25 03:57:02;;;;;;;40.78;22.48;;;4.10;99.90;;;;;;4994171;28;20090;-75
2022/03/25 03:59:28;;;;;;;32.55;17.10;;;4.10;99.90;;;;;;5011225;28;20064;-75
2022/03/25 04:01:54;;;;;;;43.95;22.15;;;4.10;99.90;;;;;;5015425;28;20041;-74
2022/03/25 04:04:19;;;;;;;38.13;22.33;;;4.10;99.90;;;;;;5015706;28;20183;-75
2022/03/25 04:06:45;;;;;;;48.40;25.95;;;4.10;99.90;;;;;;5016401;28;20029;-74
2022/03/25 04:09:10;;;;;;;45.85;26.13;;;4.10;99.90;;;;;;4998643;28;20048;-74
2022/03/25 04:11:36;;;;;;;42.60;24.35;;;4.00;99.90;;;;;;5010094;28;20052;-75
2022/03/25 04:14:02;;;;;;;49.13;26.63;;;4.00;99.90;;;;;;5011666;28;20052;-75
2022/03/25 04:16:30;;;;;;;36.03;21.98;;;4.00;99.90;;;;;;5015071;28;20026;-74
2022/03/25 04:18:57;;;;;;;45.58;24.52;;;4.00;99.90;;;;;;4994390;28;20030;-75
2022/03/25 04:21:23;;;;;;;51.90;29.08;;;3.90;99.90;;;;;;4999121;28;20026;-74
2022/03/25 04:23:49;;;;;;;57.47;31.10;;;3.90;99.90;;;;;;4992963;28;20067;-75
2022/03/25 04:26:14;;;;;;;51.38;27.95;;;3.90;99.90;;;;;;5009732;28;20254;-74
2022/03/25 04:28:40;;;;;;;49.80;28.08;;;3.80;99.90;;;;;;5010776;28;20484;-75
2022/03/25 04:31:06;;;;;;;45.80;25.17;;;3.70;99.90;;;;;;5009075;28;20041;-74
2022/03/25 04:33:34;;;;;;;46.05;26.10;;;3.60;99.90;;;;;;5010794;28;20040;-74
2022/03/25 04:36:00;;;;;;;44.38;25.35;;;3.60;99.90;;;;;;5011056;28;20701;-74
2022/03/25 04:38:26;;;;;;;44.75;25.85;;;3.60;99.90;;;;;;5015011;28;20160;-74
2022/03/25 04:40:52;;;;;;;46.28;24.63;;;3.60;99.90;;;;;;5010670;28;20505;-74
2022/03/25 04:43:18;;;;;;;51.63;29.52;;;3.60;99.90;;;;;;5011038;28;20041;-74
2022/03/25 04:45:44;;;;;;;51.97;29.30;;;3.60;99.90;;;;;;5009495;28;20030;-75
2022/03/25 04:48:11;;;;;;;48.03;26.10;;;3.50;99.90;;;;;;4998711;28;20065;-75
2022/03/25 04:50:37;;;;;;;47.33;26.15;;;3.50;99.90;;;;;;5014243;28;20029;-75
2022/03/25 04:53:03;;;;;;;46.63;26.58;;;3.50;99.90;;;;;;5015167;28;21086;-74
2022/03/25 04:55:29;;;;;;;44.25;26.30;;;3.50;99.90;;;;;;5030145;28;20581;-74
2022/03/25 04:57:55;;;;;;;44.28;25.15;;;3.40;99.90;;;;;;5012374;28;20052;-75
2022/03/25 05:00:20;;;;;;;53.60;28.05;;;3.40;99.90;;;;;;5017805;28;20021;-74
2022/03/25 05:02:46;;;;;;;51.22;26.65;;;3.50;99.90;;;;;;5018392;28;20068;-74
2022/03/25 05:05:13;;;;;;;46.75;26.75;;;3.40;99.90;;;;;;5030623;28;20029;-74
2022/03/25 05:07:46;;;;;;;49.00;26.67;;;3.40;99.90;;;;;;5029834;28;20098;-75
2022/03/25 05:10:13;;;;;;;43.78;24.13;;;3.40;99.90;;;;;;5030715;28;20416;-74
2022/03/25 05:12:43;;;;;;;47.17;25.88;;;3.40;99.90;;;;;;4997250;28;20037;-75
2022/03/25 05:15:10;;;;;;;48.80;27.42;;;3.40;99.90;;;;;;4996408;28;20059;-75
2022/03/25 05:17:47;;;;;;;46.95;25.77;;;3.30;99.90;;;;;;5011686;28;20535;-74
2022/03/25 05:20:15;;;;;;;44.30;25.10;;;3.40;99.90;;;;;;4997692;28;20029;-74
2022/03/25 05:22:40;;;;;;;50.45;28.17;;;3.30;99.90;;;;;;5018082;28;20063;-73
2022/03/25 05:25:07;;;;;;;47.55;27.13;;;3.30;99.90;;;;;;5030150;28;20025;-74
2022/03/25 05:27:50;;;;;;;64.88;36.20;;;3.30;99.90;;;;;;5012495;28;20035;-74
2022/03/25 05:30:18;;;;;;;52.63;30.75;;;3.40;99.90;;;;;;5028825;28;20781;-74
2022/03/25 05:32:44;;;;;;;50.17;28.35;;;3.30;99.90;;;;;;5012064;28;20033;-75
2022/03/25 05:35:10;;;;;;;51.25;28.23;;;3.40;99.90;;;;;;5002777;28;20095;-74
2022/03/25 05:37:36;;;;;;;50.22;28.17;;;3.30;99.90;;;;;;5029499;28;20043;-74
2022/03/25 05:40:02;;;;;;;51.22;26.88;;;3.40;99.90;;;;;;5030630;28;20036;-74
2022/03/25 05:42:28;;;;;;;50.38;28.17;;;3.40;99.90;;;;;;5010953;28;20029;-76
2022/03/25 05:44:53;;;;;;;39.13;21.67;;;3.40;99.90;;;;;;5010223;28;20037;-75
2022/03/25 05:47:19;;;;;;;46.50;25.80;;;3.40;99.90;;;;;;5027840;28;20025;-75
2022/03/25 05:49:45;;;;;;;41.85;24.10;;;3.40;99.90;;;;;;5011867;28;20503;-75
2022/03/25 05:52:11;;;;;;;45.78;25.27;;;3.40;99.90;;;;;;5010790;28;20038;-75
2022/03/25 05:54:37;;;;;;;45.40;24.90;;;3.50;99.90;;;;;;5016559;28;20179;-75
2022/03/25 05:57:03;;;;;;;43.85;25.10;;;3.40;99.90;;;;;;5029707;28;20513;-76
2022/03/25 05:59:28;;;;;;;40.88;23.02;;;3.40;99.90;;;;;;4995270;28;20036;-75
2022/03/25 06:01:54;;;;;;;48.53;26.35;;;3.60;99.90;;;;;;5030923;28;20017;-75
2022/03/25 06:04:20;;;;;;;53.67;29.77;;;3.50;99.90;;;;;;5021196;28;20041;-75
2022/03/25 06:06:46;;;;;;;54.28;30.80;;;3.60;99.90;;;;;;5032673;28;20056;-74
2022/03/25 06:09:12;;;;;;;60.50;31.92;;;3.60;99.90;;;;;;5031820;28;20030;-74
2022/03/25 06:11:37;;;;;;;54.22;31.10;;;3.60;99.90;;;;;;5004109;28;20082;-75
2022/03/25 06:14:03;;;;;;;52.03;28.60;;;3.60;99.90;;;;;;5020223;28;20032;-75
2022/03/25 06:16:29;;;;;;;54.58;30.67;;;3.70;99.90;;;;;;5029484;28;20494;-75
2022/03/25 06:18:55;;;;;;;50.22;28.08;;;3.70;99.90;;;;;;5004516;28;20048;-75
2022/03/25 06:21:21;;;;;;;48.13;27.42;;;3.70;99.90;;;;;;5021786;28;20598;-74
2022/03/25 06:23:47;;;;;;;56.30;32.60;;;3.80;99.90;;;;;;5031750;28;20029;-75
2022/03/25 06:26:12;;;;;;;58.60;32.33;;;3.80;99.90;;;;;;5033575;28;20022;-75
2022/03/25 06:28:38;;;;;;;65.85;37.03;;;3.90;99.90;;;;;;4997328;28;20451;-74
2022/03/25 06:31:04;;;;;;;64.50;36.58;;;4.00;99.90;;;;;;5033018;28;20454;-75
2022/03/25 06:33:30;;;;;;;91.55;51.35;;;4.00;99.90;;;;;;5013704;28;20033;-75
2022/03/25 06:35:56;;;;;;;88.38;48.33;;;4.10;99.90;;;;;;5004640;28;20033;-75
2022/03/25 06:38:22;;;;;;;93.10;51.53;;;4.10;99.90;;;;;;5013928;28;20271;-75
2022/03/25 06:40:47;;;;;;;81.85;44.70;;;4.10;99.90;;;;;;5020090;28;20116;-75
2022/03/25 06:43:13;;;;;;;74.47;42.40;;;4.20;99.90;;;;;;4996679;28;20393;-74
2022/03/25 06:45:39;;;;;;;75.60;41.42;;;4.20;99.90;;;;;;5019775;28;20029;-75
2022/03/25 06:48:05;;;;;;;79.47;45.53;;;4.40;99.90;;;;;;5014239;28;20030;-75
2022/03/25 06:50:30;;;;;;;76.28;41.58;;;4.50;99.90;;;;;;5003935;28;20553;-75
2022/03/25 06:53:01;;;;;;;76.65;43.42;;;4.50;99.90;;;;;;5031473;28;20038;-75
2022/03/25 06:55:28;;;;;;;62.53;35.05;;;4.60;99.90;;;;;;5032539;28;20053;-76
2022/03/25 06:57:54;;;;;;;77.35;43.60;;;4.70;99.90;;;;;;5019628;28;20052;-76
2022/03/25 07:00:21;;;;;;;73.18;42.08;;;4.70;99.90;;;;;;5009922;28;20030;-77
2022/03/25 07:02:47;;;;;;;70.30;38.35;;;4.80;99.90;;;;;;5014305;28;20025;-75
2022/03/25 07:05:13;;;;;;;69.60;40.97;;;4.90;99.90;;;;;;5014269;28;20160;-75
2022/03/25 07:07:40;;;;;;;57.20;33.25;;;5.00;99.90;;;;;;5031408;28;20043;-75
2022/03/25 07:10:09;;;;;;;66.80;36.80;;;5.00;99.90;;;;;;4995890;28;20069;-75
2022/03/25 07:12:38;;;;;;;62.95;36.95;;;5.20;99.90;;;;;;5012128;28;20417;-75
2022/03/25 07:15:05;;;;;;;57.80;33.78;;;5.30;99.90;;;;;;5031416;28;20043;-75
2022/03/25 07:17:31;;;;;;;57.13;32.92;;;5.40;99.90;;;;;;5014038;28;20264;-75
2022/03/25 07:19:57;;;;;;;73.43;44.42;;;5.40;99.90;;;;;;4997758;28;20188;-75
2022/03/25 07:22:22;;;;;;;81.20;46.85;;;5.50;99.90;;;;;;5013074;28;20231;-76
2022/03/25 07:24:48;;;;;;;76.57;44.78;;;5.60;99.90;;;;;;5032061;28;20151;-75
2022/03/25 07:27:13;;;;;;;65.85;38.60;;;5.80;99.90;;;;;;5020264;28;20029;-75
2022/03/25 07:29:39;;;;;;;70.55;41.75;;;5.90;99.90;;;;;;4997907;28;20033;-75
2022/03/25 07:32:05;;;;;;;103.45;61.83;;;5.90;99.90;;;;;;5032042;28;20040;-75
2022/03/25 07:34:36;;;;;;;88.55;51.15;;;5.90;99.90;;;;;;5003518;28;20075;-75
2022/03/25 07:37:03;;;;;;;101.22;58.35;;;6.00;99.90;;;;;;5018928;28;20044;-75
2022/03/25 07:39:30;;;;;;;94.50;54.25;;;6.10;99.90;;;;;;5013063;28;20041;-76
2022/03/25 07:41:55;;;;;;;93.65;55.45;;;6.20;99.90;;;;;;5013257;28;20029;-75
2022/03/25 07:44:22;;;;;;;85.97;49.58;;;6.30;99.90;;;;;;5003263;28;20059;-75
2022/03/25 07:46:47;;;;;;;98.65;59.75;;;6.40;99.90;;;;;;5013497;28;20036;-76
2022/03/25 07:49:13;;;;;;;101.00;59.20;;;6.50;99.90;;;;;;5019790;28;20036;-76
2022/03/25 07:51:38;;;;;;;103.32;62.30;;;6.60;99.90;;;;;;5019371;28;20034;-76
2022/03/25 07:54:05;;;;;;;86.85;50.65;;;6.70;99.90;;;;;;5032720;28;20398;-76
2022/03/25 07:56:31;;;;;;;95.13;57.30;;;6.80;99.90;;;;;;5030220;28;20037;-76
2022/03/25 07:58:59;;;;;;;87.20;51.70;;;6.90;99.90;;;;;;4997722;28;20039;-76
2022/03/25 08:01:25;;;;;;;87.25;52.88;;;7.20;99.90;;;;;;5019882;28;20025;-76
2022/03/25 08:03:50;;;;;;;77.18;48.25;;;7.30;99.90;;;;;;5015863;28;20087;-76
2022/03/25 08:06:16;;;;;;;73.57;45.03;;;7.50;99.90;;;;;;5013959;28;20029;-75
2022/03/25 08:08:42;;;;;;;91.47;55.75;;;7.60;99.90;;;;;;5019089;28;20048;-76
2022/03/25 08:11:08;;;;;;;88.85;55.85;;;7.60;99.90;;;;;;5030182;28;20083;-76
2022/03/25 08:13:34;;;;;;;93.18;57.17;;;7.70;99.90;;;;;;5003658;28;20041;-75
2022/03/25 08:16:00;;;;;;;102.07;61.80;;;7.80;99.90;;;;;;5032131;28;20079;-76
2022/03/25 08:18:25;;;;;;;83.00;51.88;;;7.70;99.90;;;;;;5014100;28;20119;-76
2022/03/25 08:20:53;;;;;;;94.82;60.47;;;7.90;99.90;;;;;;5013096;28;20025;-76
2022/03/25 08:28:53;;;;;;;88.32;55.40;;;8.20;99.90;;;;;;5011992;28;20489;-76
2022/03/25 08:31:19;;;;;;;95.32;58.28;;;8.30;99.90;;;;;;5009367;28;20039;-76
2022/03/25 08:33:45;;;;;;;98.18;62.83;;;8.20;99.90;;;;;;5028272;28;20025;-76
2022/03/25 08:36:11;;;;;;;98.38;62.22;;;8.30;99.90;;;;;;5028054;28;20037;-76
2022/03/25 08:38:36;;;;;;;90.32;58.75;;;8.30;99.90;;;;;;5017677;28;20349;-76
2022/03/25 08:41:03;;;;;;;86.00;54.20;;;8.60;99.90;;;;;;5013657;28;20184;-76
2022/03/25 08:43:29;;;;;;;76.65;50.13;;;8.80;99.90;;;;;;4993628;28;20046;-76
2022/03/25 08:45:55;;;;;;;76.60;49.53;;;9.00;99.90;;;;;;5029571;28;20117;-76
2022/03/25 08:48:20;;;;;;;75.22;48.03;;;9.20;99.90;;;;;;5012958;28;20020;-76
2022/03/25 08:50:46;;;;;;;70.15;43.88;;;9.20;99.90;;;;;;5011764;28;20424;-77
2022/03/25 08:53:12;;;;;;;64.88;41.95;;;9.60;99.90;;;;;;5025749;28;23140;-76
2022/03/25 08:55:37;;;;;;;80.65;50.38;;;9.90;99.90;;;;;;5029847;28;20068;-76
2022/03/25 08:58:03;;;;;;;83.10;54.30;;;9.50;99.90;;;;;;5011502;28;20046;-77
2022/03/25 09:00:29;;;;;;;83.15;51.95;;;9.50;99.90;;;;;;5010316;28;20033;-77
2022/03/25 09:02:54;;;;;;;78.78;50.65;;;9.80;99.90;;;;;;5027579;28;20556;-76
2022/03/25 09:05:20;;;;;;;75.63;49.22;;;10.00;99.90;;;;;;5011219;28;20094;-76
2022/03/25 09:07:46;;;;;;;77.32;50.03;;;10.00;99.90;;;;;;5000904;28;20434;-76
2022/03/25 09:10:16;;;;;;;90.35;60.08;;;10.10;99.90;;;;;;5011956;28;20037;-76
2022/03/25 09:12:44;;;;;;;88.15;58.10;;;9.90;99.90;;;;;;5030278;28;20385;-77
2022/03/25 09:15:12;;;;;;;77.13;52.47;;;10.10;99.90;;;;;;5029887;28;20124;-76
2022/03/25 09:17:39;;;;;;;74.22;49.75;;;10.30;99.90;;;;;;5012188;28;20050;-76
2022/03/25 09:20:06;;;;;;;86.20;57.65;;;10.60;99.90;;;;;;5012142;28;20060;-77
2022/03/25 09:22:32;;;;;;;81.72;52.70;;;10.40;99.90;;;;;;5030772;28;20061;-77
2022/03/25 09:24:58;;;;;;;84.40;55.55;;;10.50;99.90;;;;;;5002271;28;20048;-77
2022/03/25 09:27:24;;;;;;;84.57;54.80;;;10.70;99.90;;;;;;5029747;28;20032;-77
2022/03/25 09:29:50;;;;;;;96.47;62.10;;;10.60;99.90;;;;;;5028758;28;20036;-77
2022/03/25 09:32:16;;;;;;;94.20;61.25;;;10.40;99.90;;;;;;5012033;28;20041;-77
2022/03/25 09:37:25;;;;;;;90.35;59.35;;;10.60;99.90;;;;;;5031947;28;20060;-77
2022/03/25 09:39:51;;;;;;;69.20;48.85;;;10.80;99.90;;;;;;5033819;28;20029;-77
2022/03/25 09:42:19;;;;;;;65.75;44.08;;;11.30;99.90;;;;;;5031847;28;20036;-77
2022/03/25 09:44:46;;;;;;;67.05;45.28;;;11.70;99.90;;;;;;5022948;28;20053;-76
2022/03/25 09:47:14;;;;;;;80.70;56.58;;;11.70;99.90;;;;;;5021379;28;20036;-76
2022/03/25 09:49:40;;;;;;;62.22;42.60;;;11.60;99.90;;;;;;5033331;28;20116;-77
2022/03/25 09:52:07;;;;;;;71.93;48.80;;;11.90;99.90;;;;;;5032416;28;20082;-77
2022/03/25 09:54:34;;;;;;;69.07;45.50;;;11.90;99.90;;;;;;5030865;28;20774;-77
2022/03/25 09:57:00;;;;;;;61.08;41.13;;;12.00;99.90;;;;;;5034129;28;20033;-78
2022/03/25 09:59:26;;;;;;;60.67;42.97;;;12.30;99.90;;;;;;5032204;28;20258;-77
2022/03/25 10:01:52;;;;;;;64.82;42.85;;;12.30;99.90;;;;;;5014955;28;20037;-77
2022/03/25 10:04:56;;;;;;;54.95;37.92;;;12.50;99.90;;;;;;5003771;28;20137;-77
2022/03/25 10:07:23;;;;;;;47.33;32.55;;;12.80;99.90;;;;;;4979551;28;20069;-77
2022/03/25 10:10:10;;;;;;;60.95;43.45;;;12.80;99.90;;;;;;4981061;28;20041;-77
2022/03/25 10:12:38;;;;;;;60.22;41.65;;;12.60;99.90;;;;;;4965822;28;20057;-77
2022/03/25 10:15:15;;;;;;;48.13;34.08;;;12.90;99.90;;;;;;4965249;28;20568;-77
2022/03/25 10:17:47;;;;;;;54.83;35.33;;;13.40;99.90;;;;;;4979785;28;20041;-77
2022/03/25 10:20:13;;;;;;;49.75;34.88;;;13.50;99.90;;;;;;4996985;28;20053;-77
2022/03/25 10:22:39;;;;;;;65.53;44.35;;;13.70;99.90;;;;;;4980310;28;20549;-77
2022/03/25 10:25:09;;;;;;;69.53;46.33;;;13.20;99.90;;;;;;4980955;28;20420;-77
2022/03/25 10:27:35;;;;;;;51.08;37.30;;;13.00;99.90;;;;;;4986453;28;20088;-77
2022/03/25 10:30:05;;;;;;;51.00;37.60;;;13.60;99.90;;;;;;4980812;28;20536;-77
2022/03/25 10:32:38;;;;;;;46.90;34.45;;;13.80;99.90;;;;;;4996959;28;20095;-77
2022/03/25 10:35:03;;;;;;;41.83;30.05;;;14.10;99.90;;;;;;4995658;28;20394;-77
2022/03/25 10:37:29;;;;;;;55.17;39.35;;;14.10;99.90;;;;;;4987780;28;20055;-77
2022/03/25 10:39:55;;;;;;;64.40;44.22;;;14.10;99.90;;;;;;4996117;28;20032;-77
2022/03/25 10:42:21;;;;;;;67.70;47.75;;;13.70;99.90;;;;;;5013542;28;20040;-77
2022/03/25 10:44:47;;;;;;;66.70;47.22;;;13.90;99.90;;;;;;5013928;28;20064;-78
2022/03/25 10:47:15;;;;;;;64.35;45.28;;;13.70;99.90;;;;;;5017556;28;20036;-77
2022/03/25 10:49:46;;;;;;;52.65;36.83;;;14.00;99.90;;;;;;4998259;28;20025;-77
2022/03/25 10:52:32;;;;;;;61.22;44.65;;;14.30;99.90;;;;;;5030869;28;20033;-77
2022/03/25 10:55:34;;;;;;;65.45;45.90;;;14.30;99.90;;;;;;5031698;28;20114;-77
2022/03/25 10:57:59;;;;;;;57.70;40.00;;;14.10;99.90;;;;;;4958176;28;20046;-78
2022/03/25 11:00:26;;;;;;;61.70;43.00;;;14.30;99.90;;;;;;4959379;28;20430;-77
2022/03/25 11:02:52;;;;;;;57.35;41.85;;;14.30;99.90;;;;;;4942526;28;20300;-77
2022/03/25 11:05:18;;;;;;;53.90;37.10;;;14.20;99.90;;;;;;4936037;28;20039;-77
2022/03/25 11:07:47;;;;;;;44.78;32.80;;;14.60;99.90;;;;;;4960679;28;20085;-78
2022/03/25 11:10:17;;;;;;;38.72;29.17;;;15.20;99.90;;;;;;4936554;28;20503;-77
2022/03/25 11:12:43;;;;;;;;;;;15.40;99.90;;;;;;4959458;28;20139;-77
2022/03/25 11:15:11;;;;;;;57.55;40.08;;;15.40;99.90;;;;;;4941573;28;19984;-78
2022/03/25 11:17:39;;;;;;;46.58;34.28;;;14.70;99.90;;;;;;4957475;28;20077;-78
2022/03/25 11:20:06;;;;;;;41.83;30.77;;;15.20;99.90;;;;;;4957230;28;20415;-77
2022/03/25 11:22:34;;;;;;;50.83;36.65;;;15.50;99.90;;;;;;4933279;28;20043;-77
2022/03/25 11:25:02;;;;;;;56.72;40.85;;;15.30;99.90;;;;;;4956226;28;20059;-78
2022/03/25 11:27:31;;;;;;;50.78;37.33;;;14.90;99.90;;;;;;4941409;28;20034;-77
2022/03/25 11:30:03;;;;;;;43.85;31.95;;;15.30;99.90;;;;;;4936539;28;20054;-78
2022/03/25 11:32:29;;;;;;;55.42;39.75;;;15.80;99.90;;;;;;4994271;28;20156;-78
2022/03/25 11:34:55;;;;;;;45.92;34.08;;;15.40;99.90;;;;;;5002304;28;20170;-77
2022/03/25 11:37:26;;;;;;;42.05;31.50;;;15.50;99.90;;;;;;5030390;28;20068;-78
2022/03/25 11:40:18;;;;;;;38.22;27.70;;;15.80;99.90;;;;;;5018033;28;20056;-78
2022/03/25 11:42:48;;;;;;;36.65;27.08;;;16.00;99.90;;;;;;5016258;28;20036;-77
2022/03/25 11:45:20;;;;;;;40.00;30.33;;;15.90;99.90;;;;;;5030668;28;20028;-77
2022/03/25 11:48:07;;;;;;;29.45;22.77;;;16.20;99.90;;;;;;5018305;28;20366;-78
2022/03/25 11:50:36;;;;;;;42.47;31.17;;;16.30;99.90;;;;;;5024303;28;20467;-77
2022/03/25 11:53:29;;;;;;;40.67;28.95;;;16.20;99.90;;;;;;5011688;28;20029;-77
2022/03/25 11:56:03;;;;;;;41.83;30.40;;;16.40;99.90;;;;;;4995015;28;20037;-78
2022/03/25 11:58:36;;;;;;;43.58;29.88;;;16.30;99.90;;;;;;4994623;28;20560;-77
2022/03/25 12:01:20;;;;;;;33.78;25.75;;;16.50;99.90;;;;;;5029434;28;20037;-77
2022/03/25 12:03:49;;;;;;;28.27;21.90;;;16.80;99.90;;;;;;5029718;28;20030;-78
2022/03/25 12:06:19;;;;;;;43.90;33.08;;;16.90;99.90;;;;;;5001034;28;20462;-77
2022/03/25 12:09:18;;;;;;;33.33;25.75;;;16.50;99.90;;;;;;5018696;28;20037;-78
2022/03/25 12:11:58;;;;;;;44.47;30.97;;;16.70;99.90;;;;;;5002359;28;20033;-78
2022/03/25 12:14:31;;;;;;;48.00;34.35;;;17.00;99.90;;;;;;5018745;28;20299;-77
2022/03/25 12:17:07;;;;;;;41.67;30.88;;;16.80;99.90;;;;;;5014253;28;20163;-77
2022/03/25 12:19:38;;;;;;;48.17;35.15;;;16.70;99.90;;;;;;5012639;28;20098;-77
2022/03/25 12:22:19;;;;;;;47.38;33.42;;;16.70;99.90;;;;;;5031555;28;20033;-78
2022/03/25 12:24:52;;;;;;;42.75;30.80;;;16.70;99.90;;;;;;4996879;28;20041;-78
2022/03/25 12:27:19;;;;;;;37.53;25.65;;;16.80;99.90;;;;;;5013669;28;20036;-78
2022/03/25 12:29:54;;;;;;;29.73;20.80;;;17.20;99.90;;;;;;5030233;28;20032;-77
2022/03/25 12:32:25;;;;;;;39.58;28.20;;;17.40;99.90;;;;;;5030118;28;20048;-78
2022/03/25 12:35:01;;;;;;;42.53;29.63;;;17.00;99.90;;;;;;5029253;28;20064;-78
2022/03/25 12:37:38;;;;;;;41.47;31.35;;;17.00;99.90;;;;;;5002008;28;20044;-79
2022/03/25 12:40:25;;;;;;;38.30;24.13;;;17.00;99.90;;;;;;5010742;28;20394;-78
2022/03/25 12:42:58;;;;;;;43.20;28.67;;;17.30;99.90;;;;;;5010688;28;20064;-77
2022/03/25 12:45:40;;;;;;;32.15;23.33;;;16.90;99.90;;;;;;5011067;28;20404;-78